Time;durP1;ratioP1;P1;durP2;ratioP2;P2;SDS_P1;SDS_P2;PMS_P1;PMS_P2;Temp;Humidity;BMP_temperature;BMP_pressure;BME280_temperature;BME280_humidity;BME280_pressure;Samples;Min_cycle;Max_cycle;Signal;HPM_P1;HPM_P2
2022/04/11 00:00:47;;;;;;;7.60;1.80;;;5.00;99.90;;;;;;5075610;28;20448;-82
2022/04/11 00:03:12;;;;;;;8.25;2.20;;;5.10;99.90;;;;;;5057203;28;20097;-82
2022/04/11 00:05:39;;;;;;;14.13;3.20;;;5.10;99.90;;;;;;5075110;28;20024;-82
2022/04/11 00:08:05;;;;;;;10.73;2.08;;;5.00;99.90;;;;;;5075050;28;20079;-82
2022/04/11 00:10:30;;;;;;;4.60;1.63;;;5.10;99.90;;;;;;5075465;28;20029;-82
2022/04/11 00:13:04;;;;;;;9.55;3.55;;;5.10;99.90;;;;;;5074950;28;20033;-82
2022/04/11 00:15:30;;;;;;;4.25;1.70;;;5.00;99.90;;;;;;5075537;28;20021;-82
2022/04/11 00:17:56;;;;;;;4.82;1.88;;;5.00;99.90;;;;;;5075230;28;20021;-83
2022/04/11 00:20:23;;;;;;;10.13;2.47;;;5.00;99.90;;;;;;5057422;28;20361;-83
2022/04/11 00:22:49;;;;;;;4.20;1.80;;;4.90;99.90;;;;;;5074192;28;20048;-82
2022/04/11 00:25:14;;;;;;;10.35;2.00;;;4.80;99.90;;;;;;5074888;28;20032;-83
2022/04/11 00:27:43;;;;;;;3.60;1.67;;;4.80;99.90;;;;;;5057340;28;20023;-82
2022/04/11 00:30:09;;;;;;;9.30;1.73;;;4.70;99.90;;;;;;5074824;28;20025;-82
2022/04/11 00:32:41;;;;;;;8.02;2.63;;;4.70;99.90;;;;;;5056565;28;20051;-82
2022/04/11 00:35:08;;;;;;;4.03;1.50;;;4.70;99.90;;;;;;5074726;28;20020;-82
2022/04/11 00:37:37;;;;;;;3.42;1.40;;;4.60;99.90;;;;;;5056030;28;20017;-82
2022/04/11 00:40:05;;;;;;;2.97;1.60;;;4.60;99.90;;;;;;5074927;28;20016;-82
2022/04/11 00:42:32;;;;;;;3.25;1.67;;;4.50;99.90;;;;;;5074720;28;20085;-82
2022/04/11 00:45:03;;;;;;;3.97;1.60;;;4.50;99.90;;;;;;5056627;28;20086;-82
2022/04/11 00:47:31;;;;;;;3.47;1.70;;;4.50;99.90;;;;;;5074726;28;20447;-82
2022/04/11 00:50:07;;;;;;;9.57;2.08;;;4.40;99.90;;;;;;5074300;28;20103;-82
2022/04/11 00:52:37;;;;;;;3.00;1.42;;;4.30;99.90;;;;;;5055820;28;20017;-82
2022/04/11 00:55:07;;;;;;;5.68;1.65;;;4.30;99.90;;;;;;5056351;28;20025;-82
2022/04/11 00:57:33;;;;;;;3.22;1.80;;;4.20;99.90;;;;;;5074619;28;20021;-82
2022/04/11 01:00:09;;;;;;;8.73;2.05;;;4.20;99.90;;;;;;5074288;28;20036;-82
2022/04/11 01:02:35;;;;;;;;;;;4.20;99.90;;;;;;5056713;28;20106;-82
2022/04/11 01:05:16;;;;;;;5.43;1.70;;;4.20;99.90;;;;;;5056041;28;19912;-82
2022/04/11 01:07:42;;;;;;;5.18;1.70;;;4.10;99.90;;;;;;5055862;28;20145;-82
2022/04/11 01:10:09;;;;;;;4.88;1.73;;;4.10;99.90;;;;;;5074186;28;20028;-82
2022/04/11 01:12:35;;;;;;;6.38;2.28;;;4.10;99.90;;;;;;5074299;28;20016;-82
2022/04/11 01:15:05;;;;;;;5.22;1.73;;;4.10;99.90;;;;;;5073941;28;20017;-82
2022/04/11 01:17:35;;;;;;;4.85;1.75;;;4.10;99.90;;;;;;5056258;28;20029;-82
2022/04/11 01:20:13;;;;;;;9.90;2.28;;;4.00;99.90;;;;;;5073915;28;20024;-82
2022/04/11 01:22:40;;;;;;;6.75;1.98;;;4.00;99.90;;;;;;5055381;28;20138;-82
2022/04/11 01:25:06;;;;;;;3.35;1.75;;;4.00;99.90;;;;;;5074214;28;20024;-82
2022/04/11 01:27:33;;;;;;;6.65;2.15;;;4.00;99.90;;;;;;5073835;28;20112;-82
2022/04/11 01:29:59;;;;;;;7.65;2.28;;;4.10;99.90;;;;;;5055573;28;20028;-82
2022/04/11 01:32:26;;;;;;;7.55;1.90;;;4.10;99.90;;;;;;5055900;28;20091;-82
2022/04/11 01:34:51;;;;;;;4.43;1.67;;;4.10;99.90;;;;;;5073440;28;20035;-82
2022/04/11 01:37:17;;;;;;;4.28;2.03;;;4.20;99.90;;;;;;5073197;28;20017;-82
2022/04/11 01:39:42;;;;;;;6.28;1.80;;;4.10;99.90;;;;;;5073674;28;20419;-82
2022/04/11 01:42:09;;;;;;;11.75;2.28;;;4.10;99.90;;;;;;5073041;28;20070;-83
2022/04/11 01:44:34;;;;;;;7.95;2.30;;;4.30;99.90;;;;;;5073202;28;20028;-82
2022/04/11 01:47:02;;;;;;;5.78;1.95;;;4.30;99.90;;;;;;5073351;28;20020;-82
2022/04/11 01:49:27;;;;;;;10.00;2.28;;;4.40;99.90;;;;;;5055728;28;20025;-82
2022/04/11 01:51:53;;;;;;;8.55;2.30;;;4.50;99.90;;;;;;5073219;28;20029;-82
2022/04/11 01:54:18;;;;;;;18.77;2.65;;;4.50;99.90;;;;;;5072591;28;20017;-82
2022/04/11 01:56:45;;;;;;;9.02;2.08;;;4.50;99.90;;;;;;5073566;28;20027;-82
2022/04/11 01:59:12;;;;;;;4.38;2.13;;;4.50;99.90;;;;;;5055505;28;20361;-82
2022/04/11 02:01:39;;;;;;;8.32;2.35;;;4.50;99.90;;;;;;5072736;28;20021;-82
2022/04/11 02:04:04;;;;;;;9.10;3.00;;;4.60;99.90;;;;;;5073049;28;20614;-82
2022/04/11 02:06:30;;;;;;;7.93;2.17;;;4.60;99.90;;;;;;5054992;28;20111;-82
2022/04/11 02:08:55;;;;;;;11.15;2.05;;;4.60;99.90;;;;;;5072805;28;20117;-82
2022/04/11 02:11:22;;;;;;;3.00;2.08;;;4.60;99.90;;;;;;5072950;28;20024;-82
2022/04/11 02:13:47;;;;;;;10.05;2.63;;;4.60;99.90;;;;;;5072770;28;20024;-82
2022/04/11 02:16:15;;;;;;;6.60;1.80;;;4.50;99.90;;;;;;5055155;28;20020;-82
2022/04/11 02:18:40;;;;;;;3.15;1.73;;;4.50;99.90;;;;;;5055148;28;20392;-82
2022/04/11 02:21:06;;;;;;;2.67;1.52;;;4.50;99.90;;;;;;5073265;28;20107;-83
2022/04/11 02:23:31;;;;;;;5.28;2.15;;;4.50;99.90;;;;;;5054545;28;20044;-82
2022/04/11 02:25:59;;;;;;;4.15;2.00;;;4.40;99.90;;;;;;5072779;28;20472;-82
2022/04/11 02:28:24;;;;;;;5.00;2.17;;;4.40;99.90;;;;;;5071170;28;20032;-82
2022/04/11 02:30:51;;;;;;;7.60;1.98;;;4.30;99.90;;;;;;5072766;28;20353;-82
2022/04/11 02:33:17;;;;;;;5.45;1.58;;;4.30;99.90;;;;;;5072764;28;20033;-82
2022/04/11 02:35:43;;;;;;;7.30;1.88;;;4.10;99.90;;;;;;5072618;28;20059;-82
2022/04/11 02:38:08;;;;;;;4.75;1.70;;;4.10;99.90;;;;;;5072531;28;20052;-83
2022/04/11 02:40:34;;;;;;;5.13;1.85;;;3.90;99.90;;;;;;5072954;28;20676;-82
2022/04/11 02:42:59;;;;;;;5.95;2.13;;;3.80;99.90;;;;;;5054955;28;20104;-82
2022/04/11 02:45:25;;;;;;;6.50;1.80;;;3.70;99.90;;;;;;5072801;28;20020;-82
2022/04/11 02:47:52;;;;;;;3.20;1.40;;;3.60;99.90;;;;;;5072596;28;20064;-83
2022/04/11 02:50:17;;;;;;;5.25;1.77;;;3.60;99.90;;;;;;5054516;28;20023;-82
2022/04/11 02:52:43;;;;;;;9.25;2.30;;;3.50;99.90;;;;;;5072316;28;20021;-82
2022/04/11 02:55:09;;;;;;;4.47;1.92;;;3.40;99.90;;;;;;5075639;28;20042;-83
2022/04/11 02:57:38;;;;;;;5.28;1.83;;;3.40;99.90;;;;;;5076938;28;20066;-82
2022/04/11 03:00:10;;;;;;;8.75;2.00;;;3.40;99.90;;;;;;5076634;28;20099;-83
2022/04/11 03:02:44;;;;;;;7.00;2.50;;;3.30;99.90;;;;;;5076359;28;20443;-82
2022/04/11 03:05:09;;;;;;;7.35;1.83;;;3.30;99.90;;;;;;5076720;28;20016;-82
2022/04/11 03:07:36;;;;;;;10.45;2.20;;;3.30;99.90;;;;;;5058271;28;20035;-82
2022/04/11 03:10:02;;;;;;;3.55;1.92;;;3.40;99.90;;;;;;5076500;28;20032;-82
2022/04/11 03:12:31;;;;;;;4.95;1.75;;;3.40;99.90;;;;;;5076549;28;20104;-82
2022/04/11 03:14:57;;;;;;;7.15;2.17;;;3.40;99.90;;;;;;5076276;28;20025;-83
2022/04/11 03:17:24;;;;;;;8.20;2.03;;;3.50;99.90;;;;;;5076392;28;20407;-83
2022/04/11 03:19:50;;;;;;;20.20;2.17;;;3.50;99.90;;;;;;5058201;28;20025;-82
2022/04/11 03:22:15;;;;;;;6.05;1.63;;;3.50;99.90;;;;;;5050926;28;20052;-82
2022/04/11 03:24:41;;;;;;;6.47;2.58;;;3.60;99.90;;;;;;5051415;28;20072;-83
2022/04/11 03:27:06;;;;;;;7.07;2.22;;;3.60;99.90;;;;;;5036515;28;20032;-82
2022/04/11 03:29:34;;;;;;;16.25;2.70;;;3.70;99.90;;;;;;5035170;28;20025;-82
2022/04/11 03:32:00;;;;;;;9.82;2.33;;;3.80;99.90;;;;;;5035164;28;20029;-81
2022/04/11 03:34:25;;;;;;;11.85;2.83;;;3.90;99.90;;;;;;5034320;28;20048;-82
2022/04/11 03:36:51;;;;;;;9.52;1.70;;;4.10;99.90;;;;;;5035557;28;20180;-81
2022/04/11 03:39:18;;;;;;;5.03;2.10;;;4.10;99.90;;;;;;5035687;28;20107;-82
2022/04/11 03:41:44;;;;;;;9.90;2.13;;;4.20;99.90;;;;;;5034624;28;20022;-82
2022/04/11 03:44:12;;;;;;;5.68;1.90;;;4.30;99.90;;;;;;5034380;28;20045;-82
2022/04/11 03:46:38;;;;;;;12.07;2.17;;;4.30;99.90;;;;;;5034845;28;20029;-82
2022/04/11 03:49:05;;;;;;;15.18;2.03;;;4.40;99.90;;;;;;5051183;28;20030;-81
2022/04/11 03:51:31;;;;;;;6.07;2.03;;;4.40;99.90;;;;;;5035492;28;20091;-82
2022/04/11 03:53:58;;;;;;;7.93;2.15;;;4.50;99.90;;;;;;5035023;28;20474;-82
2022/04/11 03:56:23;;;;;;;14.23;2.28;;;4.40;99.90;;;;;;5035577;28;20045;-82
2022/04/11 03:58:50;;;;;;;8.55;2.03;;;4.50;99.90;;;;;;5035426;28;20476;-82
2022/04/11 04:01:16;;;;;;;7.07;1.90;;;4.60;99.90;;;;;;5035457;28;20030;-81
2022/04/11 04:03:42;;;;;;;14.95;3.25;;;4.60;99.90;;;;;;5035699;28;20060;-81
2022/04/11 04:06:08;;;;;;;7.40;1.70;;;4.60;99.90;;;;;;5034930;28;20061;-82
2022/04/11 04:08:34;;;;;;;12.00;1.98;;;4.70;99.90;;;;;;5035156;28;20029;-81
2022/04/11 04:11:00;;;;;;;6.78;2.00;;;4.70;99.90;;;;;;5035317;28;20057;-82
2022/04/11 04:13:26;;;;;;;5.85;2.17;;;4.80;99.90;;;;;;5050152;28;20053;-81
2022/04/11 04:15:51;;;;;;;10.10;2.25;;;4.80;99.90;;;;;;5035121;28;20025;-81
2022/04/11 04:18:18;;;;;;;6.28;2.13;;;4.80;99.90;;;;;;5050488;28;20552;-81
2022/04/11 04:20:43;;;;;;;9.48;1.95;;;4.80;99.90;;;;;;5034198;28;20026;-81
2022/04/11 04:23:09;;;;;;;10.20;2.20;;;4.70;99.90;;;;;;5068914;28;20048;-81
2022/04/11 04:25:36;;;;;;;7.07;2.17;;;4.70;99.90;;;;;;5056997;28;20043;-81
2022/04/11 04:28:03;;;;;;;10.27;2.03;;;4.70;99.90;;;;;;5075105;28;20443;-82
2022/04/11 04:30:29;;;;;;;9.80;2.08;;;4.70;99.90;;;;;;5056890;28;20028;-81
2022/04/11 04:32:56;;;;;;;8.68;1.88;;;4.70;99.90;;;;;;5074673;28;20415;-82
2022/04/11 04:35:28;;;;;;;11.32;2.53;;;4.70;99.90;;;;;;5075124;28;20423;-83
2022/04/11 04:37:54;;;;;;;7.60;2.00;;;4.80;99.90;;;;;;5056378;28;20483;-82
2022/04/11 04:40:22;;;;;;;8.98;1.88;;;4.80;99.90;;;;;;5074593;28;20024;-82
2022/04/11 04:42:48;;;;;;;6.75;2.13;;;4.80;99.90;;;;;;5056814;28;20031;-81
2022/04/11 04:45:14;;;;;;;11.05;2.00;;;4.80;99.90;;;;;;5056708;28;20029;-82
2022/04/11 04:47:40;;;;;;;7.18;2.22;;;4.80;99.90;;;;;;5074531;28;20036;-81
2022/04/11 04:50:06;;;;;;;15.30;2.25;;;4.80;99.90;;;;;;5074180;28;20028;-82
2022/04/11 04:52:32;;;;;;;8.05;1.55;;;4.80;99.90;;;;;;5064090;28;20013;-81
2022/04/11 04:54:57;;;;;;;10.88;2.55;;;4.90;99.90;;;;;;5072963;28;20024;-81
2022/04/11 04:57:26;;;;;;;9.73;2.10;;;4.80;99.90;;;;;;5073254;28;20024;-82
2022/04/11 04:59:52;;;;;;;8.63;2.30;;;4.90;99.90;;;;;;5073283;28;20044;-81
2022/04/11 05:02:20;;;;;;;5.43;1.90;;;4.90;99.90;;;;;;5072900;28;20407;-82
2022/04/11 05:04:46;;;;;;;13.73;3.15;;;4.80;99.90;;;;;;5073454;28;20028;-81
2022/04/11 05:07:12;;;;;;;20.83;5.03;;;4.90;99.90;;;;;;5073688;28;20044;-81
2022/04/11 05:09:38;;;;;;;15.93;3.88;;;4.90;99.90;;;;;;5074020;28;20020;-81
2022/04/11 05:12:04;;;;;;;18.35;3.75;;;5.00;99.90;;;;;;5073631;28;20033;-81
2022/04/11 05:14:29;;;;;;;8.95;3.10;;;5.00;99.90;;;;;;5072991;28;20526;-81
2022/04/11 05:16:58;;;;;;;5.35;2.38;;;5.00;99.90;;;;;;5072313;28;20025;-82
2022/04/11 05:19:24;;;;;;;14.43;2.65;;;5.10;99.90;;;;;;5055940;28;20547;-81
2022/04/11 05:21:49;;;;;;;13.52;2.95;;;5.20;99.90;;;;;;5051624;28;20132;-81
2022/04/11 05:24:15;;;;;;;17.58;6.10;;;5.20;99.90;;;;;;5052498;28;20119;-81
2022/04/11 05:26:41;;;;;;;6.13;2.55;;;5.20;99.90;;;;;;5052577;28;20033;-81
2022/04/11 05:29:07;;;;;;;7.88;2.03;;;5.20;99.90;;;;;;5052793;28;20047;-81
2022/04/11 05:31:33;;;;;;;9.85;2.38;;;5.30;99.90;;;;;;5053712;28;20050;-81
2022/04/11 05:34:00;;;;;;;5.85;2.25;;;5.40;99.90;;;;;;5051761;28;20416;-81
2022/04/11 05:36:25;;;;;;;7.63;1.85;;;5.40;99.90;;;;;;5051988;28;20393;-81
2022/04/11 05:38:51;;;;;;;8.65;2.33;;;5.40;99.90;;;;;;5050307;28;20032;-81
2022/04/11 05:41:16;;;;;;;8.45;2.00;;;5.50;99.90;;;;;;5052514;28;20373;-89
2022/04/11 05:44:19;;;;;;;6.72;2.05;;;5.60;99.90;;;;;;5051922;28;20515;-89
2022/04/11 05:46:46;;;;;;;3.10;1.58;;;5.60;99.90;;;;;;5032268;28;20025;-90
2022/04/11 05:49:11;;;;;;;5.22;2.10;;;5.70;99.90;;;;;;5032185;28;20236;-89
2022/04/11 05:51:37;;;;;;;3.25;1.70;;;5.80;99.90;;;;;;5033070;28;20029;-88
2022/04/11 05:54:15;;;;;;;5.90;1.83;;;5.80;99.90;;;;;;5033295;28;20025;-88
2022/04/11 05:56:41;;;;;;;8.70;2.15;;;5.90;99.90;;;;;;5047369;28;20033;-89
2022/04/11 05:59:08;;;;;;;11.02;2.40;;;5.90;99.90;;;;;;5053222;28;20021;-87
2022/04/11 06:01:38;;;;;;;10.48;1.90;;;6.00;99.90;;;;;;5053143;28;20387;-89
2022/04/11 06:04:16;;;;;;;4.15;1.83;;;6.00;99.90;;;;;;5052960;28;20107;-88
2022/04/11 06:06:42;;;;;;;10.35;1.85;;;6.10;99.90;;;;;;5051329;28;20508;-87
2022/04/11 06:09:13;;;;;;;6.65;1.95;;;6.10;99.90;;;;;;5053025;28;20024;-88
2022/04/11 06:11:38;;;;;;;5.97;1.77;;;6.20;99.90;;;;;;5052978;28;20021;-88
2022/04/11 06:17:14;;;;;;;12.10;2.42;;;6.30;99.90;;;;;;5053374;28;20492;-88
2022/04/11 06:20:06;;;;;;;9.73;2.20;;;6.30;99.90;;;;;;5052842;28;20223;-86
2022/04/11 06:22:45;;;;;;;6.00;2.15;;;6.40;99.90;;;;;;5064422;28;20074;-86
2022/04/11 06:25:11;;;;;;;8.90;1.58;;;6.40;99.90;;;;;;5072913;28;20082;-86
2022/04/11 06:27:37;;;;;;;10.98;1.85;;;6.50;99.90;;;;;;5072838;28;20040;-87
2022/04/11 06:30:21;;;;;;;4.65;1.30;;;6.50;99.90;;;;;;5072759;28;20486;-90
2022/04/11 06:32:47;;;;;;;7.85;1.80;;;6.50;99.90;;;;;;5054709;28;20115;-89
2022/04/11 06:35:27;;;;;;;7.25;1.63;;;6.50;99.90;;;;;;5072805;28;20045;-87
2022/04/11 06:37:52;;;;;;;13.40;1.92;;;6.60;99.90;;;;;;5072417;28;20031;-87
2022/04/11 06:40:32;;;;;;;11.27;2.45;;;6.70;99.90;;;;;;5072732;28;20095;-88
2022/04/11 06:42:57;;;;;;;6.15;1.52;;;6.80;99.90;;;;;;5072595;28;20032;-88
2022/04/11 06:45:37;;;;;;;9.77;2.55;;;6.80;99.90;;;;;;5072525;28;20035;-89
2022/04/11 06:48:03;;;;;;;10.15;1.85;;;6.80;99.90;;;;;;5072528;28;20475;-87
2022/04/11 06:50:40;;;;;;;12.77;2.05;;;6.90;99.90;;;;;;5054413;28;20114;-88
2022/04/11 06:53:05;;;;;;;11.18;2.10;;;6.90;99.90;;;;;;5072234;28;20361;-86
2022/04/11 06:55:38;;;;;;;3.97;1.40;;;7.00;99.90;;;;;;5072984;28;20027;-87
2022/04/11 06:58:03;;;;;;;7.10;1.88;;;7.00;99.90;;;;;;5072376;28;20037;-87
2022/04/11 07:00:36;;;;;;;5.68;1.98;;;7.00;99.90;;;;;;5072609;28;20423;-89
2022/04/11 07:03:01;;;;;;;8.40;1.92;;;7.10;99.90;;;;;;5072361;28;20391;-86
2022/04/11 07:05:42;;;;;;;8.27;1.77;;;7.20;99.90;;;;;;5072386;28;20127;-86
2022/04/11 07:08:08;;;;;;;3.25;1.33;;;7.30;99.90;;;;;;5072117;28;20486;-87
2022/04/11 07:10:40;;;;;;;3.33;1.35;;;7.40;99.90;;;;;;5072030;28;20029;-88
2022/04/11 07:13:06;;;;;;;3.05;1.33;;;7.40;99.90;;;;;;5054393;28;20028;-87
2022/04/11 07:15:37;;;;;;;8.85;2.03;;;7.50;99.90;;;;;;5072204;28;20155;-89
2022/04/11 07:18:03;;;;;;;8.52;3.00;;;7.60;99.90;;;;;;5071940;28;20020;-87
2022/04/11 07:20:28;;;;;;;10.38;1.98;;;7.60;99.90;;;;;;5054133;28;20461;-87
2022/04/11 07:22:58;;;;;;;6.57;1.80;;;7.60;99.90;;;;;;5071376;28;20048;-86
2022/04/11 07:25:24;;;;;;;7.75;1.55;;;7.70;99.90;;;;;;5054200;28;20021;-90
2022/04/11 07:27:50;;;;;;;11.32;2.60;;;7.70;99.90;;;;;;5072164;28;20090;-87
2022/04/11 07:30:22;;;;;;;7.60;1.90;;;7.70;99.90;;;;;;5072118;28;20021;-87
2022/04/11 07:32:47;;;;;;;3.13;1.70;;;7.70;99.90;;;;;;5054087;28;20055;-90
2022/04/11 07:35:20;;;;;;;7.22;1.52;;;7.80;99.90;;;;;;5071928;28;20021;-89
2022/04/11 07:37:45;;;;;;;7.13;1.98;;;7.90;99.90;;;;;;5071746;28;20104;-88
2022/04/11 07:40:12;;;;;;;5.32;1.60;;;7.90;99.90;;;;;;5054764;28;20496;-87
2022/04/11 07:42:38;;;;;;;5.55;1.45;;;8.00;99.90;;;;;;5075582;28;20020;-89
2022/04/11 07:45:14;;;;;;;4.72;1.42;;;8.00;99.90;;;;;;5057542;28;20024;-86
2022/04/11 07:47:40;;;;;;;7.20;1.77;;;8.00;99.90;;;;;;5075231;28;20074;-89
2022/04/11 07:50:17;;;;;;;11.35;1.63;;;8.00;99.90;;;;;;5057450;28;20055;-89
2022/04/11 07:52:43;;;;;;;7.45;1.85;;;8.10;99.90;;;;;;5057207;28;20030;-88
2022/04/11 07:55:38;;;;;;;9.00;1.80;;;8.20;99.90;;;;;;5075388;28;20472;-89
2022/04/11 07:58:04;;;;;;;5.15;1.52;;;8.30;99.90;;;;;;5057493;28;20024;-87
2022/04/11 08:00:31;;;;;;;6.95;1.73;;;8.30;99.90;;;;;;5075448;28;20086;-89
2022/04/11 08:02:57;;;;;;;4.45;1.60;;;8.40;99.90;;;;;;5057240;28;20033;-86
2022/04/11 08:06:02;;;;;;;7.88;1.67;;;8.40;99.90;;;;;;5057424;28;20021;-89
2022/04/11 08:08:27;;;;;;;6.20;1.63;;;8.40;99.90;;;;;;5074834;28;20020;-89
2022/04/11 08:10:53;;;;;;;10.88;2.22;;;8.40;99.90;;;;;;5075367;28;20379;-88
2022/04/11 08:13:18;;;;;;;5.10;2.40;;;8.50;99.90;;;;;;5075241;28;20078;-88
2022/04/11 08:15:50;;;;;;;8.85;2.10;;;8.60;99.90;;;;;;5074995;28;20017;-87
2022/04/11 08:18:15;;;;;;;5.28;1.45;;;8.60;99.10;;;;;;5075117;28;20051;-89
2022/04/11 08:20:54;;;;;;;4.72;1.98;;;8.60;99.90;;;;;;5057122;28;20064;-87
2022/04/11 08:23:19;;;;;;;10.95;1.92;;;8.60;99.90;;;;;;5074599;28;20049;-88
2022/04/11 08:25:49;;;;;;;9.02;1.83;;;8.60;99.90;;;;;;5074609;28;20419;-88
2022/04/11 08:28:15;;;;;;;6.35;2.05;;;8.70;99.90;;;;;;5075193;28;20566;-88
2022/04/11 08:30:58;;;;;;;4.57;2.05;;;8.70;98.40;;;;;;5074570;28;20534;-87
2022/04/11 08:33:24;;;;;;;7.00;1.67;;;8.70;99.90;;;;;;5057298;28;20099;-88
2022/04/11 08:36:06;;;;;;;4.57;1.95;;;8.90;99.90;;;;;;5074956;28;20052;-88
2022/04/11 08:38:31;;;;;;;4.65;2.67;;;8.90;98.20;;;;;;5074543;28;20025;-87
2022/04/11 08:41:16;;;;;;;10.43;2.75;;;8.90;97.80;;;;;;5056921;28;20036;-88
2022/04/11 08:43:42;;;;;;;12.43;2.30;;;8.90;99.90;;;;;;5056650;28;20396;-88
2022/04/11 08:46:09;;;;;;;8.43;3.58;;;8.90;99.10;;;;;;5074182;28;20033;-88
2022/04/11 08:48:35;;;;;;;15.23;3.13;;;9.00;98.40;;;;;;5074507;28;20383;-87
2022/04/11 08:51:31;;;;;;;5.03;2.00;;;9.00;92.60;;;;;;5056357;28;20029;-87
2022/04/11 08:53:59;;;;;;;11.23;2.42;;;9.00;96.30;;;;;;5074610;28;20048;-88
2022/04/11 08:56:25;;;;;;;3.83;2.00;;;9.10;97.20;;;;;;5074309;28;20017;-87
2022/04/11 08:58:51;;;;;;;8.18;2.88;;;9.20;96.10;;;;;;5074425;28;20020;-87
2022/04/11 09:01:17;;;;;;;9.38;2.10;;;9.30;89.80;;;;;;5074313;28;20051;-88
2022/04/11 09:04:03;;;;;;;9.15;2.45;;;9.30;90.70;;;;;;5074130;28;20028;-88
2022/04/11 09:06:33;;;;;;;16.55;2.42;;;9.30;93.50;;;;;;5073908;28;20026;-88
2022/04/11 09:09:05;;;;;;;6.97;1.98;;;9.30;92.40;;;;;;5056648;28;20032;-87
2022/04/11 09:11:35;;;;;;;16.90;2.85;;;9.30;94.90;;;;;;5074173;28;20020;-88
2022/04/11 09:14:08;;;;;;;7.60;2.30;;;9.40;99.50;;;;;;5056110;28;20050;-88
2022/04/11 09:16:49;;;;;;;4.10;1.77;;;9.50;97.10;;;;;;5056485;28;20028;-87
2022/04/11 09:19:21;;;;;;;8.00;2.33;;;9.50;97.20;;;;;;5074055;28;20100;-89
2022/04/11 09:21:55;;;;;;;4.47;1.95;;;9.70;98.30;;;;;;5073541;28;20119;-87
2022/04/11 09:24:22;;;;;;;7.97;1.80;;;9.70;90.00;;;;;;5055761;28;20029;-88
2022/04/11 09:26:59;;;;;;;7.13;1.70;;;9.80;92.90;;;;;;5074018;28;20031;-88
2022/04/11 09:29:33;;;;;;;8.00;1.65;;;9.80;97.90;;;;;;5073632;28;20135;-87
2022/04/11 09:32:26;;;;;;;5.85;1.73;;;9.90;90.30;;;;;;5071261;28;20064;-88
2022/04/11 09:34:53;;;;;;;10.80;2.45;;;9.90;85.90;;;;;;5035797;28;20029;-87
2022/04/11 09:37:22;;;;;;;7.95;2.15;;;9.80;94.80;;;;;;5053353;28;20659;-87
2022/04/11 09:39:56;;;;;;;2.75;1.50;;;9.90;90.80;;;;;;5053384;28;20029;-87
2022/04/11 09:42:33;;;;;;;6.32;2.10;;;10.00;92.60;;;;;;5053451;28;20021;-87
2022/04/11 09:45:00;;;;;;;5.25;1.90;;;10.10;92.60;;;;;;5035694;28;20036;-87
2022/04/11 09:47:26;;;;;;;4.88;2.55;;;10.10;93.90;;;;;;5053463;28;20049;-87
2022/04/11 09:49:52;;;;;;;9.10;3.05;;;10.20;92.00;;;;;;5035608;28;20031;-88
2022/04/11 09:52:37;;;;;;;4.45;1.67;;;10.30;84.90;;;;;;5053001;28;20028;-88
2022/04/11 09:55:03;;;;;;;6.72;2.08;;;10.40;74.60;;;;;;5035486;28;20017;-87
2022/04/11 09:57:47;;;;;;;5.97;1.85;;;10.30;93.20;;;;;;5071823;28;20100;-86
2022/04/11 10:00:13;;;;;;;10.18;3.33;;;10.40;94.80;;;;;;5073165;28;20384;-88
2022/04/11 10:02:55;;;;;;;3.83;1.75;;;10.50;95.40;;;;;;5054795;28;20024;-88
2022/04/11 10:05:21;;;;;;;6.65;1.90;;;10.70;88.60;;;;;;5072903;28;20021;-87
2022/04/11 10:07:50;;;;;;;5.88;1.83;;;10.70;85.80;;;;;;5071806;28;20052;-87
2022/04/11 10:10:17;;;;;;;7.75;2.42;;;10.70;92.50;;;;;;5072301;28;20602;-87
2022/04/11 10:12:46;;;;;;;11.00;2.00;;;10.80;81.80;;;;;;5072929;28;20100;-86
2022/04/11 10:15:13;;;;;;;8.10;1.83;;;10.80;80.20;;;;;;5055315;28;20025;-87
2022/04/11 10:17:49;;;;;;;6.32;1.88;;;10.80;77.50;;;;;;5073046;28;20108;-87
2022/04/11 10:20:29;;;;;;;5.47;1.58;;;10.90;78.50;;;;;;5055097;28;20449;-87
2022/04/11 10:23:32;;;;;;;6.63;1.77;;;10.90;71.70;;;;;;5072127;28;20045;-87
2022/04/11 10:25:59;;;;;;;5.43;2.10;;;10.80;81.00;;;;;;5054982;28;20071;-87
2022/04/11 10:28:53;;;;;;;4.03;1.60;;;10.80;77.40;;;;;;5072776;28;20425;-86
2022/04/11 10:31:19;;;;;;;6.28;1.95;;;10.80;80.90;;;;;;5072715;28;20021;-86
2022/04/11 10:34:03;;;;;;;5.78;1.98;;;10.90;70.70;;;;;;5072407;28;20062;-86
2022/04/11 10:36:34;;;;;;;5.68;1.70;;;11.00;70.90;;;;;;5054296;28;20111;-85
2022/04/11 10:39:26;;;;;;;7.15;2.08;;;11.00;85.00;;;;;;5072705;28;20016;-86
2022/04/11 10:41:54;;;;;;;3.55;1.58;;;11.10;80.30;;;;;;5072777;28;20031;-85
2022/04/11 10:44:49;;;;;;;4.70;1.75;;;11.20;82.70;;;;;;5072443;28;20028;-86
2022/04/11 10:47:15;;;;;;;6.40;1.95;;;11.20;71.50;;;;;;5067028;28;20437;-86
2022/04/11 10:49:49;;;;;;;3.95;2.00;;;11.20;69.10;;;;;;5071989;28;20031;-86
2022/04/11 10:52:31;;;;;;;7.82;1.92;;;11.20;78.20;;;;;;5051875;28;20021;-86
2022/04/11 10:55:08;;;;;;;7.50;1.90;;;11.20;68.00;;;;;;5057493;28;20376;-86
2022/04/11 10:57:36;;;;;;;4.20;1.50;;;11.10;70.10;;;;;;5072408;28;20051;-86
2022/04/11 11:00:10;;;;;;;8.43;1.48;;;11.00;72.10;;;;;;5067394;28;20408;-85
2022/04/11 11:02:57;;;;;;;11.25;2.00;;;11.00;75.50;;;;;;5072176;28;20074;-86
2022/04/11 11:05:42;;;;;;;7.45;2.78;;;11.00;79.90;;;;;;5072273;28;20041;-86
2022/04/11 11:08:10;;;;;;;1.45;1.20;;;11.10;71.80;;;;;;5054497;28;20032;-86
2022/04/11 11:11:13;;;;;;;6.05;2.45;;;11.20;80.50;;;;;;5072464;28;20051;-88
2022/04/11 11:13:54;;;;;;;3.17;1.40;;;11.40;82.80;;;;;;5072093;28;20016;-87
2022/04/11 11:16:19;;;;;;;3.75;1.65;;;11.40;82.80;;;;;;5075672;28;20025;-87
2022/04/11 11:19:01;;;;;;;3.60;1.40;;;11.40;84.30;;;;;;5058323;28;20411;-86
2022/04/11 11:21:44;;;;;;;4.95;1.65;;;11.50;84.10;;;;;;5075780;28;20488;-87
2022/04/11 11:24:16;;;;;;;4.22;1.40;;;11.50;85.40;;;;;;5059783;28;20020;-86
2022/04/11 11:27:15;;;;;;;4.68;2.67;;;11.50;91.20;;;;;;5076012;28;20403;-87
2022/04/11 11:29:43;;;;;;;4.95;1.90;;;11.70;64.90;;;;;;5075972;28;20036;-86
2022/04/11 11:32:14;;;;;;;6.55;2.10;;;11.90;67.20;;;;;;5076043;28;20110;-87
2022/04/11 11:34:41;;;;;;;5.60;2.28;;;11.90;65.60;;;;;;5075990;28;20017;-86
2022/04/11 11:40:20;;;;;;;5.78;1.83;;;12.20;64.30;;;;;;5071993;28;20089;-86
2022/04/11 11:42:46;;;;;;;4.22;2.20;;;12.30;64.80;;;;;;5075645;28;20028;-86
2022/04/11 11:45:12;;;;;;;3.88;1.70;;;12.40;58.30;;;;;;5075776;28;20030;-86
2022/04/11 11:47:37;;;;;;;4.30;1.80;;;12.40;59.90;;;;;;5057797;28;20020;-86
2022/04/11 11:50:07;;;;;;;2.13;1.48;;;12.40;61.10;;;;;;5075651;28;20384;-85
2022/04/11 11:52:33;;;;;;;3.92;1.38;;;12.30;62.40;;;;;;5057298;28;20028;-86
2022/04/11 11:55:02;;;;;;;5.55;1.73;;;12.20;61.40;;;;;;5075735;28;20046;-86
2022/04/11 11:57:29;;;;;;;2.30;1.30;;;12.20;57.80;;;;;;5075559;28;20027;-86
2022/04/11 12:00:09;;;;;;;4.18;1.13;;;12.10;61.00;;;;;;5075632;28;20029;-86
2022/04/11 12:05:23;;;;;;;2.25;1.25;;;12.20;61.70;;;;;;5075689;28;20027;-86
2022/04/11 12:08:08;;;;;;;5.97;1.92;;;12.40;69.60;;;;;;5075003;28;20094;-86
2022/04/11 12:10:35;;;;;;;4.70;2.00;;;12.50;61.50;;;;;;5075266;28;20020;-87
2022/04/11 12:13:00;;;;;;;3.10;1.90;;;12.70;58.30;;;;;;5074887;28;20440;-87
2022/04/11 12:15:36;;;;;;;4.22;1.60;;;12.90;51.30;;;;;;5057307;28;20017;-86
2022/04/11 12:18:07;;;;;;;6.03;1.80;;;12.90;56.50;;;;;;5074737;28;20032;-87
2022/04/11 12:21:09;;;;;;;7.55;2.33;;;13.00;64.10;;;;;;5074750;28;20475;-86
2022/04/11 12:23:44;;;;;;;3.78;1.45;;;13.00;59.10;;;;;;5075045;28;20052;-86
2022/04/11 12:26:09;;;;;;;6.30;2.13;;;13.00;54.00;;;;;;5074488;28;20024;-87
2022/04/11 12:28:40;;;;;;;2.10;1.02;;;13.00;52.90;;;;;;5057257;28;20033;-86
2022/04/11 12:31:13;;;;;;;7.53;1.40;;;13.10;55.20;;;;;;5074607;28;20048;-87
2022/04/11 12:34:11;;;;;;;4.30;1.30;;;13.00;62.40;;;;;;5075006;28;20021;-86
2022/04/11 12:36:36;;;;;;;4.32;1.48;;;13.00;62.90;;;;;;5069549;28;20021;-86
2022/04/11 12:39:13;;;;;;;4.50;1.90;;;13.00;55.80;;;;;;5056371;28;20126;-86
2022/04/11 12:41:47;;;;;;;6.65;1.77;;;13.00;54.30;;;;;;5074811;28;20087;-87
2022/04/11 12:44:19;;;;;;;3.65;1.52;;;13.00;54.30;;;;;;5074583;28;20065;-88
2022/04/11 12:46:48;;;;;;;8.13;1.90;;;13.10;53.50;;;;;;5056604;28;20024;-87
2022/04/11 12:49:22;;;;;;;5.63;1.80;;;13.20;49.20;;;;;;5056592;28;20020;-87
2022/04/11 12:52:01;;;;;;;3.40;1.63;;;13.20;48.10;;;;;;5074195;28;20024;-87
2022/04/11 12:54:41;;;;;;;7.50;1.63;;;13.20;47.90;;;;;;5056475;28;20025;-87
2022/04/11 12:57:08;;;;;;;3.60;1.27;;;13.20;51.20;;;;;;5074494;28;20513;-86
2022/04/11 12:59:36;;;;;;;5.15;1.58;;;13.20;51.50;;;;;;5056431;28;20067;-87
2022/04/11 13:02:06;;;;;;;4.15;1.65;;;13.10;51.00;;;;;;5056240;28;20249;-87
2022/04/11 13:04:33;;;;;;;5.00;1.58;;;13.10;51.70;;;;;;5074229;28;20086;-87
2022/04/11 13:06:59;;;;;;;3.47;1.58;;;13.30;48.20;;;;;;5073930;28;20021;-87
2022/04/11 13:09:32;;;;;;;7.13;1.63;;;13.50;47.90;;;;;;5074067;28;20495;-86
2022/04/11 13:11:58;;;;;;;2.63;1.02;;;13.50;47.60;;;;;;5056225;28;20095;-87
2022/04/11 13:14:29;;;;;;;2.17;1.30;;;13.40;47.30;;;;;;5074044;28;20024;-86
2022/04/11 13:19:54;;;;;;;6.50;1.42;;;13.30;49.00;;;;;;5074076;28;20028;-87